KCFV/CFV METAR and TAF weather

Enter ICAO airport designator
Station Type Date Time Source
KCFV METAR 2019/04/24 21:52 UTC NOAA

KCFV 242152Z AUTO 00000KT 9SM OVC016 16/12 A2986 RMK AO2 SLP109 T01610117


Station Type Date Time Source
KCFV Decoded METAR 2019/04/24 21:52 UTC NOAA

COFFEYVILLE MUNICIPAL AIRPORT , KS, United States (KCFV) 37-05N 95-34W 225M
Apr 24, 2019 - 05:52 PM EDT / 2019.04.24 2152 UTC
Wind: Calm:0
Visibility: 9 mile(s):0
Sky conditions: overcast
Temperature: 61.0 F (16.1 C)
Dew Point: 53.1 F (11.7 C)
Relative Humidity: 75%
Pressure (altimeter): 29.86 in. Hg (1011 hPa)
ob: KCFV 242152Z AUTO 00000KT 9SM OVC016 16/12 A2986 RMK AO2 SLP109 T01610117
cycle: 22

Station Type Date Time Source
KCFV TAF UTC NOAA

Error!

Example: see airport list